地図

経路データ

SID SEASON NUMBER BASIN SUBBASIN NAME ISO_TIME NATURE LAT LON WMO_WIND WMO_PRES WMO_AGENCY TRACK_TYPE DIST2LAND LANDFALL IFLAG USA_AGENCY USA_ATCF_ID USA_LAT USA_LON USA_RECORD USA_STATUS USA_WIND USA_PRES USA_SSHS USA_R34_NE USA_R34_SE USA_R34_SW USA_R34_NW USA_R50_NE USA_R50_SE USA_R50_SW USA_R50_NW USA_R64_NE USA_R64_SE USA_R64_SW USA_R64_NW USA_POCI USA_ROCI USA_RMW USA_EYE TOKYO_LAT TOKYO_LON TOKYO_GRADE TOKYO_WIND TOKYO_PRES TOKYO_R50_DIR TOKYO_R50_LONG TOKYO_R50_SHORT TOKYO_R30_DIR TOKYO_R30_LONG TOKYO_R30_SHORT TOKYO_LAND CMA_LAT CMA_LON CMA_CAT CMA_WIND CMA_PRES HKO_LAT HKO_LON HKO_CAT HKO_WIND HKO_PRES NEWDELHI_LAT NEWDELHI_LON NEWDELHI_GRADE NEWDELHI_WIND NEWDELHI_PRES NEWDELHI_CI NEWDELHI_DP NEWDELHI_POCI REUNION_LAT REUNION_LON REUNION_TYPE REUNION_WIND REUNION_PRES REUNION_TNUM REUNION_CI REUNION_RMW REUNION_R34_NE REUNION_R34_SE REUNION_R34_SW REUNION_R34_NW REUNION_R50_NE REUNION_R50_SE REUNION_R50_SW REUNION_R50_NW REUNION_R64_NE REUNION_R64_SE REUNION_R64_SW REUNION_R64_NW BOM_LAT BOM_LON BOM_TYPE BOM_WIND BOM_PRES BOM_TNUM BOM_CI BOM_RMW BOM_R34_NE BOM_R34_SE BOM_R34_SW BOM_R34_NW BOM_R50_NE BOM_R50_SE BOM_R50_SW BOM_R50_NW BOM_R64_NE BOM_R64_SE BOM_R64_SW BOM_R64_NW BOM_ROCI BOM_POCI BOM_EYE BOM_POS_METHOD BOM_PRES_METHOD NADI_LAT NADI_LON NADI_CAT NADI_WIND NADI_PRES WELLINGTON_LAT WELLINGTON_LON WELLINGTON_WIND WELLINGTON_PRES DS824_LAT DS824_LON DS824_STAGE DS824_WIND DS824_PRES TD9636_LAT TD9636_LON TD9636_STAGE TD9636_WIND TD9636_PRES TD9635_LAT TD9635_LON TD9635_WIND TD9635_PRES TD9635_ROCI NEUMANN_LAT NEUMANN_LON NEUMANN_CLASS NEUMANN_WIND NEUMANN_PRES MLC_LAT MLC_LON MLC_CLASS MLC_WIND MLC_PRES USA_GUST BOM_GUST BOM_GUST_PER REUNION_GUST REUNION_GUST_PER USA_SEAHGT USA_SEARAD_NE USA_SEARAD_SE USA_SEARAD_SW USA_SEARAD_NW STORM_SPEED STORM_DIR
1871239N24298 1871 19 NA NA NOT_NAMED 1871-08-27 06:00:00 TS 23.8000 -61.6000 main 732 720 _____________O -1 23.8000 -61.6000 TS 45 6 288
1871239N24298 1871 19 NA NA NOT_NAMED 1871-08-27 09:00:00 TS 23.8876 -61.9000 main 724 713 _____________P -1 23.8876 -61.9000 TS 45 6 290
1871239N24298 1871 19 NA NA NOT_NAMED 1871-08-27 12:00:00 TS 24.0000 -62.2000 main 718 713 _____________O -1 24.0000 -62.2000 TS 45 6 296
1871239N24298 1871 19 NA NA NOT_NAMED 1871-08-27 15:00:00 TS 24.1499 -62.5000 main 713 713 _____________P -1 24.1499 -62.5000 TS 47 6 299
1871239N24298 1871 19 NA NA NOT_NAMED 1871-08-27 18:00:00 TS 24.3000 -62.8000 main 720 716 _____________O -1 24.3000 -62.8000 TS 50 6 295
1871239N24298 1871 19 NA NA NOT_NAMED 1871-08-27 21:00:00 TS 24.3999 -63.1002 main 719 715 _____________P -1 24.3999 -63.1002 TS 50 6 290
1871239N24298 1871 19 NA NA NOT_NAMED 1871-08-28 00:00:00 TS 24.5000 -63.4000 main 719 715 _____________O -1 24.5000 -63.4000 TS 50 6 294
1871239N24298 1871 19 NA NA NOT_NAMED 1871-08-28 03:00:00 TS 24.6500 -63.7074 main 720 720 _____________P -1 24.6500 -63.7074 TS 50 6 299
1871239N24298 1871 19 NA NA NOT_NAMED 1871-08-28 06:00:00 TS 24.8000 -64.0000 main 734 732 _____________O -1 24.8000 -64.0000 TS 50 6 296
1871239N24298 1871 19 NA NA NOT_NAMED 1871-08-28 09:00:00 TS 24.8925 -64.2652 main 739 737 _____________P -1 24.8925 -64.2652 TS 52 5 294
1871239N24298 1871 19 NA NA NOT_NAMED 1871-08-28 12:00:00 TS 25.0000 -64.5000 main 746 745 _____________O -1 25.0000 -64.5000 TS 55 5 306
1871239N24298 1871 19 NA NA NOT_NAMED 1871-08-28 15:00:00 TS 25.1849 -64.7075 main 765 764 _____________P -1 25.1849 -64.7075 TS 57 5 318
1871239N24298 1871 19 NA NA NOT_NAMED 1871-08-28 18:00:00 TS 25.4000 -64.9000 main 785 785 _____________O -1 25.4000 -64.9000 TS 60 5 320
1871239N24298 1871 19 NA NA NOT_NAMED 1871-08-28 21:00:00 TS 25.6000 -65.1001 main 806 806 _____________P -1 25.6000 -65.1001 TS 60 5 318
1871239N24298 1871 19 NA NA NOT_NAMED 1871-08-29 00:00:00 TS 25.8000 -65.3000 main 827 827 _____________O -1 25.8000 -65.3000 TS 60 5 318
1871239N24298 1871 19 NA NA NOT_NAMED 1871-08-29 03:00:00 TS 26.0075 -65.5075 main 844 844 _____________P -1 26.0075 -65.5075 TS 67 5 318
1871239N24298 1871 19 NA NA NOT_NAMED 1871-08-29 06:00:00 TS 26.2000 -65.7000 main 854 854 _____________O -1 26.2000 -65.7000 HU 75 5 317
1871239N24298 1871 19 NA NA NOT_NAMED 1871-08-29 09:00:00 TS 26.3575 -65.8651 main 866 862 _____________P -1 26.3575 -65.8651 HU 80 4 318
1871239N24298 1871 19 NA NA NOT_NAMED 1871-08-29 12:00:00 TS 26.5000 -66.0000 main 872 872 _____________O -1 26.5000 -66.0000 HU 85 4 323
1871239N24298 1871 19 NA NA NOT_NAMED 1871-08-29 15:00:00 TS 26.6500 -66.1076 main 877 877 _____________P -1 26.6500 -66.1076 HU 90 4 330
1871239N24298 1871 19 NA NA NOT_NAMED 1871-08-29 18:00:00 TS 26.8000 -66.2000 main 893 893 _____________O -1 26.8000 -66.2000 HU 95 3 330
1871239N24298 1871 19 NA NA NOT_NAMED 1871-08-29 21:00:00 TS 26.9500 -66.3000 main 909 899 _____________P -1 26.9500 -66.3000 HU 97 2 20
1871239N24298 1871 19 NA NA NOT_NAMED 1871-08-30 00:00:00 TS 26.9667 -66.1333 90 hurdat_atl main 917 913 O____________O hurdat_atl AL051871 26.7000 -65.6000 HU 90 2 27.1000 -66.4000 MH 100 2 3
1871239N24298 1871 19 NA NA NOT_NAMED 1871-08-30 03:00:00 TS 27.1663 -66.2711 main 929 929 P____________P AL051871 27.0826 -66.0347 HU 90 2 27.2500 -66.5075 MH 100 6 324
1871239N24298 1871 19 NA NA NOT_NAMED 1871-08-30 06:00:00 TS 27.4600 -66.5400 90 hurdat_atl main 952 948 O____________O hurdat_atl AL051871 27.5000 -66.5000 HU 90 2 27.4000 -66.6000 MH 100 9 321
1871239N24298 1871 19 NA NA NOT_NAMED 1871-08-30 09:00:00 TS 27.8350 -66.8884 main 961 961 P____________P AL051871 27.9776 -67.0076 HU 90 2 27.5500 -66.6501 MH 100 10 322
1871239N24298 1871 19 NA NA NOT_NAMED 1871-08-30 12:00:00 TS 28.2333 -67.2333 90 hurdat_atl main 976 976 O____________O hurdat_atl AL051871 28.5000 -67.5000 HU 90 2 27.7000 -66.7000 MH 100 10 325
1871239N24298 1871 19 NA NA NOT_NAMED 1871-08-30 15:00:00 TS 28.6423 -67.5413 main 995 995 P____________P AL051871 29.0347 -67.9156 HU 90 2 27.8575 -66.7925 MH 100 10 328
1871239N24298 1871 19 NA NA NOT_NAMED 1871-08-30 18:00:00 TS 29.0667 -67.8333 90 hurdat_atl main 1025 984 O____________O hurdat_atl AL051871 29.6000 -68.3000 HU 90 2 28.0000 -66.9000 MH 100 10 328
1871239N24298 1871 19 NA NA NOT_NAMED 1871-08-30 21:00:00 TS 29.4725 -68.1411 main 977 926 P____________P AL051871 30.1924 -68.7078 HU 90 2 28.0325 -67.0077 MH 100 10 329
1871239N24298 1871 19 NA NA NOT_NAMED 1871-08-31 00:00:00 TS 29.9333 -68.4333 90 hurdat_atl main 926 862 O____________O hurdat_atl AL051871 30.8000 -69.1000 HU 90 2 28.2000 -67.1000 MH 100 11 335
1871239N24298 1871 19 NA NA NOT_NAMED 1871-08-31 03:00:00 TS 30.4933 -68.6987 main 862 804 P____________P AL051871 31.3775 -69.4730 HU 90 2 28.7250 -67.1501 MH 100 13 340
1871239N24298 1871 19 NA NA NOT_NAMED 1871-08-31 06:00:00 TS 31.1333 -68.9333 90 hurdat_atl main 804 732 O____________O hurdat_atl AL051871 32.0000 -69.8000 HU 90 2 29.4000 -67.2000 MH 100 14 344
1871239N24298 1871 19 NA NA NOT_NAMED 1871-08-31 09:00:00 TS 31.8483 -69.1630 main 732 677 P____________P AL051871 32.7725 -70.0946 HU 90 2 30.0000 -67.2999 MH 100 14 346
1871239N24298 1871 19 NA NA NOT_NAMED 1871-08-31 12:00:00 TS 32.5333 -69.3333 90 hurdat_atl main 677 639 O____________O hurdat_atl AL051871 33.5000 -70.3000 HU 90 2 30.6000 -67.4000 MH 100 12 350
1871239N24298 1871 19 NA NA NOT_NAMED 1871-08-31 15:00:00 TS 33.0632 -69.4187 main 633 612 P____________P AL051871 33.9949 -70.3956 HU 90 2 31.2000 -67.4651 MH 100 10 355
1871239N24298 1871 19 NA NA NOT_NAMED 1871-08-31 18:00:00 TS 33.5333 -69.4333 90 hurdat_atl main 612 590 O____________O hurdat_atl AL051871 34.4000 -70.4000 HU 90 2 31.8000 -67.5000 MH 100 10 1
1871239N24298 1871 19 NA NA NOT_NAMED 1871-08-31 21:00:00 TS 34.0433 -69.4176 main 590 571 P____________P AL051871 34.8650 -70.3726 HU 90 2 32.4000 -67.5076 MH 100 10 3
1871239N24298 1871 19 NA NA NOT_NAMED 1871-09-01 00:00:00 TS 34.5333 -69.3667 90 hurdat_atl main 571 565 O____________O hurdat_atl AL051871 35.3000 -70.3000 HU 90 2 33.0000 -67.5000 MH 100 9 6
1871239N24298 1871 19 NA NA NOT_NAMED 1871-09-01 03:00:00 TS 34.9617 -69.3025 main 567 562 P____________P AL051871 35.6425 -70.2000 HU 90 2 33.6000 -67.5073 MH 100 9 7
1871239N24298 1871 19 NA NA NOT_NAMED 1871-09-01 06:00:00 TS 35.4000 -69.2333 90 hurdat_atl main 569 566 O____________O hurdat_atl AL051871 36.0000 -70.1000 HU 90 2 34.2000 -67.5000 MH 100 10 5
1871239N24298 1871 19 NA NA NOT_NAMED 1871-09-01 09:00:00 TS 35.9333 -69.1955 main 566 561 P____________P AL051871 36.4924 -70.0645 HU 90 2 34.8150 -67.4576 MH 102 11 4
1871239N24298 1871 19 NA NA NOT_NAMED 1871-09-01 12:00:00 TS 36.4667 -69.1333 90 hurdat_atl main 563 532 O____________O hurdat_atl AL051871 37.0000 -70.0000 HU 90 2 35.4000 -67.4000 MH 105 10 9
1871239N24298 1871 19 NA NA NOT_NAMED 1871-09-01 15:00:00 TS 36.8750 -69.0078 main 532 492 P____________P AL051871 37.3926 -69.8150 HU 90 2 35.8399 -67.3933 MH 105 9 16
1871239N24298 1871 19 NA NA NOT_NAMED 1871-09-01 18:00:00 TS 37.3333 -68.8333 90 hurdat_atl main 494 435 O____________O hurdat_atl AL051871 37.8000 -69.6000 HU 90 2 36.4000 -67.3000 MH 105 941 11 14
1871239N24298 1871 19 NA NA NOT_NAMED 1871-09-01 21:00:00 TS 37.9783 -68.6511 main 425 360 P____________P AL051871 38.3047 -69.4786 HU 90 2 37.3253 -66.9962 MH 102 14 14
1871239N24298 1871 19 NA NA NOT_NAMED 1871-09-02 00:00:00 TS 38.7333 -68.4000 90 hurdat_atl main 360 292 O____________O hurdat_atl AL051871 38.9000 -69.3000 HU 90 2 38.4000 -66.6000 MH 100 16 17
1871239N24298 1871 19 NA NA NOT_NAMED 1871-09-02 03:00:00 TS 39.5383 -68.0494 main 297 247 P____________P AL051871 39.6075 -68.9532 HU 90 2 39.3999 -66.2418 MH 95 17 20
1871239N24298 1871 19 NA NA NOT_NAMED 1871-09-02 06:00:00 TS 40.3333 -67.6333 90 hurdat_atl main 254 236 O____________O hurdat_atl AL051871 40.3000 -68.5000 HU 90 2 40.4000 -65.9000 HU 90 16 22
1871239N24298 1871 19 NA NA NOT_NAMED 1871-09-02 09:00:00 TS 41.0369 -67.2455 main 245 216 P____________P AL051871 40.8144 -68.0502 HU 90 2 41.4818 -65.6361 HU 87 16 29
1871239N24298 1871 19 NA NA NOT_NAMED 1871-09-02 12:00:00 TS 41.7400 -66.6200 90 hurdat_atl main 213 122 O____________O hurdat_atl AL051871 41.3000 -67.5000 HU 90 2 42.4000 -65.3000 HU 85 966 17 39
1871239N24298 1871 19 NA NA NOT_NAMED 1871-09-02 15:00:00 TS 42.3909 -65.7675 main 122 68 P____________P AL051871 41.8715 -66.7993 HU 90 2 42.9103 -64.7356 HU 82 19 47
1871239N24298 1871 19 NA NA NOT_NAMED 1871-09-02 18:00:00 TS 43.0333 -64.7333 90 hurdat_atl main 73 59 O____________O hurdat_atl AL051871 42.5000 -66.0000 HU 90 2 43.3000 -64.1000 HU 80 20 47
1871239N24298 1871 19 NA NA NOT_NAMED 1871-09-02 21:00:00 TS 43.7650 -63.7787 main 64 26 _____________P AL051871 HU -1 43.7650 -63.7787 HU 75 19 40
1871239N24298 1871 19 NA NA NOT_NAMED 1871-09-03 00:00:00 TS 44.5000 -63.0000 main 22 0 _____________O -1 44.5000 -63.0000 HU 70 28 46
1871239N24298 1871 19 NA NA NOT_NAMED 1871-09-03 03:00:00 TS 45.7046 -60.9818 main 0 0 _____________P -1 45.7046 -60.9818 HU 67 41 50
1871239N24298 1871 19 NA NA NOT_NAMED 1871-09-03 06:00:00 TS 47.1000 -58.5000 main 56 0 _____________O -1 47.1000 -58.5000 HU 65 41 49
1871239N24298 1871 19 NA NA NOT_NAMED 1871-09-03 09:00:00 TS 48.4317 -56.3696 main 0 0 _____________P -1 48.4317 -56.3696 HU 62 37 46
1871239N24298 1871 19 NA NA NOT_NAMED 1871-09-03 12:00:00 ET 49.7000 -54.5000 main 23 _____________O -1 49.7000 -54.5000 EX 60 35 44

IBTrACS Databaseについて

本データベースは、米国NOAAが公開する1842年以降の世界の熱帯低気圧のベストトラックデータアーカイブInternational Best Track Archive for Climate Stewardship (IBTrACS)を、ウェブで閲覧しやすい形式に変換したものです。

最終更新日:2021-12-03